Time;durP1;ratioP1;P1;durP2;ratioP2;P2;SDS_P1;SDS_P2;PMS_P1;PMS_P2;Temp;Humidity;BMP_temperature;BMP_pressure;BME280_temperature;BME280_humidity;BME280_pressure;Samples;Min_cycle;Max_cycle;Signal;HPM_P1;HPM_P2
2022/03/19 00:00:35;;;;;;;14.82;6.93;;;;;;;;;;5092405;28;20092;-38
2022/03/19 00:03:00;;;;;;;12.23;5.70;;;;;;;;;;5092298;28;20032;-38
2022/03/19 00:05:26;;;;;;;11.40;6.70;;;;;;;;;;5092614;28;20065;-38
2022/03/19 00:07:51;;;;;;;16.65;7.07;;;;;;;;;;5092504;28;20436;-38
2022/03/19 00:10:18;;;;;;;14.57;7.70;;;;;;;;;;5092348;28;20095;-38
2022/03/19 00:12:43;;;;;;;21.13;7.15;;;;;;;;;;5092403;28;20051;-38
2022/03/19 00:15:10;;;;;;;15.93;7.13;;;;;;;;;;5092311;28;20465;-38
2022/03/19 00:17:35;;;;;;;10.35;6.53;;;;;;;;;;5092372;28;20177;-38
2022/03/19 00:20:01;;;;;;;12.07;6.25;;;;;;;;;;5092090;28;20103;-38
2022/03/19 00:22:27;;;;;;;14.20;7.93;;;;;;;;;;5092104;28;20043;-38
2022/03/19 00:24:52;;;;;;;14.02;7.22;;;;;;;;;;5091962;28;20274;-38
2022/03/19 00:27:18;;;;;;;13.63;6.70;;;;;;;;;;5092088;28;20038;-39
2022/03/19 00:29:43;;;;;;;15.45;6.03;;;;;;;;;;5091837;28;20099;-38
2022/03/19 00:32:09;;;;;;;16.88;9.13;;;;;;;;;;5091795;28;20044;-39
2022/03/19 00:34:34;;;;;;;16.08;7.28;;;;;;;;;;5091942;28;20012;-38
2022/03/19 00:36:59;;;;;;;13.27;6.40;;;;;;;;;;5091803;28;20027;-38
2022/03/19 00:39:25;;;;;;;11.90;7.75;;;;;;;;;;5091246;28;20375;-38
2022/03/19 00:41:52;;;;;;;13.23;7.47;;;;;;;;;;5091743;28;20031;-38
2022/03/19 00:44:21;;;;;;;13.68;6.85;;;;;;;;;;5091746;28;20052;-38
2022/03/19 00:46:46;;;;;;;13.93;8.20;;;;;;;;;;5091632;28;20501;-38
2022/03/19 00:49:13;;;;;;;14.98;6.20;;;;;;;;;;5091990;28;20085;-38
2022/03/19 00:51:39;;;;;;;14.32;7.18;;;;;;;;;;5091416;28;20477;-38
2022/03/19 00:54:05;;;;;;;15.35;9.02;;;;;;;;;;5091876;28;20122;-41
2022/03/19 00:56:31;;;;;;;15.02;8.88;;;;;;;;;;5091683;28;20050;-38
2022/03/19 00:58:57;;;;;;;14.32;7.30;;;;;;;;;;5091487;28;20039;-38
2022/03/19 01:01:22;;;;;;;18.35;8.48;;;;;;;;;;5091810;28;20388;-38
2022/03/19 01:03:48;;;;;;;15.07;7.25;;;;;;;;;;5091515;28;20024;-38
2022/03/19 01:06:13;;;;;;;13.30;7.68;;;;;;;;;;5091554;28;20036;-38
2022/03/19 01:08:39;;;;;;;9.52;5.93;;;;;;;;;;5090193;28;20015;-38
2022/03/19 01:11:04;;;;;;;16.13;8.07;;;;;;;;;;5091645;28;20024;-38
2022/03/19 01:13:29;;;;;;;15.70;8.23;;;;;;;;;;5091289;28;20039;-38
2022/03/19 01:15:55;;;;;;;15.75;6.90;;;;;;;;;;5091340;28;20032;-38
2022/03/19 01:18:20;;;;;;;15.18;7.40;;;;;;;;;;5091451;28;20020;-38
2022/03/19 01:20:45;;;;;;;12.13;6.45;;;;;;;;;;5091463;28;20032;-38
2022/03/19 01:23:11;;;;;;;13.35;6.38;;;;;;;;;;5091393;28;20012;-38
2022/03/19 01:25:36;;;;;;;12.65;7.30;;;;;;;;;;5091632;28;20028;-38
2022/03/19 01:28:02;;;;;;;12.10;6.18;;;;;;;;;;5091392;28;20081;-38
2022/03/19 01:30:27;;;;;;;13.30;6.55;;;;;;;;;;5091305;28;20060;-38
2022/03/19 01:32:52;;;;;;;11.85;6.00;;;;;;;;;;5091183;28;20032;-38
2022/03/19 01:35:18;;;;;;;11.23;6.30;;;;;;;;;;5091467;28;20035;-38
2022/03/19 01:37:44;;;;;;;12.02;6.68;;;;;;;;;;5091426;28;20028;-38
2022/03/19 01:40:10;;;;;;;16.02;7.60;;;;;;;;;;5091525;28;20462;-38
2022/03/19 01:42:39;;;;;;;11.82;7.50;;;;;;;;;;5091124;28;20611;-38
2022/03/19 01:45:08;;;;;;;13.45;6.50;;;;;;;;;;5091106;28;20024;-38
2022/03/19 01:47:33;;;;;;;14.43;7.68;;;;;;;;;;5091141;28;20470;-38
2022/03/19 01:49:59;;;;;;;14.88;8.30;;;;;;;;;;5091527;28;20106;-38
2022/03/19 01:52:28;;;;;;;14.25;8.02;;;;;;;;;;5094774;28;20528;-38
2022/03/19 01:54:54;;;;;;;11.55;5.45;;;;;;;;;;5095114;28;20028;-38
2022/03/19 01:57:22;;;;;;;15.32;8.10;;;;;;;;;;5093982;28;20354;-38
2022/03/19 01:59:48;;;;;;;11.52;7.57;;;;;;;;;;5093454;28;20401;-38
2022/03/19 02:02:14;;;;;;;14.50;5.57;;;;;;;;;;5094777;28;20035;-38
2022/03/19 02:04:41;;;;;;;15.32;6.72;;;;;;;;;;5095027;28;20023;-38
2022/03/19 02:07:10;;;;;;;9.98;3.92;;;;;;;;;;5094608;28;20032;-38
2022/03/19 02:09:36;;;;;;;15.00;6.90;;;;;;;;;;5094509;28;20173;-38
2022/03/19 02:12:02;;;;;;;12.90;6.95;;;;;;;;;;5094535;28;20071;-38
2022/03/19 02:14:27;;;;;;;15.02;7.38;;;;;;;;;;5094617;28;20048;-38
2022/03/19 02:16:53;;;;;;;15.88;7.13;;;;;;;;;;5094368;28;20030;-38
2022/03/19 02:19:19;;;;;;;11.48;6.35;;;;;;;;;;5094446;28;20031;-38
2022/03/19 02:21:45;;;;;;;13.65;7.22;;;;;;;;;;5094497;28;20027;-38
2022/03/19 02:26:56;;;;;;;13.30;8.75;;;;;;;;;;5094280;28;20028;-38
2022/03/19 02:29:22;;;;;;;13.15;6.07;;;;;;;;;;5094296;28;20024;-38
2022/03/19 02:31:49;;;;;;;14.18;7.00;;;;;;;;;;5093924;28;20047;-38
2022/03/19 02:34:14;;;;;;;17.15;6.80;;;;;;;;;;5094450;28;20026;-38
2022/03/19 02:36:42;;;;;;;14.55;7.45;;;;;;;;;;5094411;28;20107;-38
2022/03/19 02:39:18;;;;;;;12.88;6.85;;;;;;;;;;5094189;28;20032;-38
2022/03/19 02:41:51;;;;;;;14.70;6.93;;;;;;;;;;5094075;28;20474;-38
2022/03/19 02:44:18;;;;;;;14.23;7.00;;;;;;;;;;5093959;28;20496;-38
2022/03/19 02:46:44;;;;;;;17.90;7.82;;;;;;;;;;5093958;28;20114;-38
2022/03/19 02:49:10;;;;;;;11.95;7.05;;;;;;;;;;5093808;28;20017;-38
2022/03/19 02:51:36;;;;;;;11.43;6.88;;;;;;;;;;5093617;28;20052;-38
2022/03/19 02:54:02;;;;;;;12.63;7.05;;;;;;;;;;5093678;28;20398;-38
2022/03/19 02:56:28;;;;;;;10.70;6.15;;;;;;;;;;5093732;28;20545;-39
2022/03/19 02:58:53;;;;;;;9.63;4.82;;;;;;;;;;5093852;28;20194;-38
2022/03/19 03:01:18;;;;;;;9.60;6.28;;;;;;;;;;5093162;28;20420;-38
2022/03/19 03:03:44;;;;;;;13.50;6.13;;;;;;;;;;5093661;28;20063;-38
2022/03/19 03:06:10;;;;;;;17.75;7.60;;;;;;;;;;5093464;28;20034;-38
2022/03/19 03:08:35;;;;;;;11.55;5.88;;;;;;;;;;5093691;28;20028;-38
2022/03/19 03:11:01;;;;;;;11.60;5.93;;;;;;;;;;5093387;28;20056;-38
2022/03/19 03:13:26;;;;;;;12.32;7.18;;;;;;;;;;5092038;28;20032;-38
2022/03/19 03:15:51;;;;;;;7.55;4.97;;;;;;;;;;5093515;28;20458;-38
2022/03/19 03:18:17;;;;;;;14.73;7.10;;;;;;;;;;5093198;28;20028;-38
2022/03/19 03:20:42;;;;;;;14.30;7.40;;;;;;;;;;5093127;28;20056;-38
2022/03/19 03:23:08;;;;;;;14.48;7.03;;;;;;;;;;5093149;28;20024;-38
2022/03/19 03:25:33;;;;;;;15.10;7.75;;;;;;;;;;5093169;28;20061;-38
2022/03/19 03:27:59;;;;;;;7.93;3.40;;;;;;;;;;5092909;28;20035;-38
2022/03/19 03:30:25;;;;;;;14.85;7.47;;;;;;;;;;5093105;28;20024;-38
2022/03/19 03:32:51;;;;;;;12.90;7.25;;;;;;;;;;5092916;28;20036;-38
2022/03/19 03:35:16;;;;;;;14.73;7.93;;;;;;;;;;5092906;28;20038;-38
2022/03/19 03:37:41;;;;;;;13.45;6.82;;;;;;;;;;5092894;28;20039;-38
2022/03/19 03:40:07;;;;;;;13.18;6.50;;;;;;;;;;5092852;28;20035;-38
2022/03/19 03:42:33;;;;;;;14.38;6.90;;;;;;;;;;5092840;28;20020;-38
2022/03/19 03:44:58;;;;;;;15.77;7.35;;;;;;;;;;5092999;28;20047;-38
2022/03/19 03:47:25;;;;;;;12.43;6.07;;;;;;;;;;5092714;28;20401;-38
2022/03/19 03:49:52;;;;;;;15.75;8.32;;;;;;;;;;5092616;28;20100;-38
2022/03/19 03:52:17;;;;;;;12.27;6.80;;;;;;;;;;5092422;28;20066;-41
2022/03/19 03:54:43;;;;;;;12.38;6.43;;;;;;;;;;5092707;28;20024;-38
2022/03/19 03:57:08;;;;;;;16.30;7.82;;;;;;;;;;5093012;28;20134;-38
2022/03/19 03:59:34;;;;;;;15.20;8.02;;;;;;;;;;5092479;28;20095;-38
2022/03/19 04:01:59;;;;;;;11.23;7.20;;;;;;;;;;5092437;28;20067;-38
2022/03/19 04:04:25;;;;;;;12.07;6.53;;;;;;;;;;5092658;28;20019;-38
2022/03/19 04:06:50;;;;;;;17.23;6.25;;;;;;;;;;5091157;28;20074;-38
2022/03/19 04:09:15;;;;;;;13.07;6.10;;;;;;;;;;5092649;28;20024;-38
2022/03/19 04:11:41;;;;;;;12.57;6.90;;;;;;;;;;5092221;28;20093;-38
2022/03/19 04:14:06;;;;;;;15.43;8.50;;;;;;;;;;5091469;28;20016;-38
2022/03/19 04:16:32;;;;;;;11.13;6.95;;;;;;;;;;5092298;28;20028;-38
2022/03/19 04:18:57;;;;;;;12.18;7.57;;;;;;;;;;5092268;28;20020;-38
2022/03/19 04:21:23;;;;;;;11.95;6.50;;;;;;;;;;5092379;28;20107;-38
2022/03/19 04:23:48;;;;;;;13.90;7.05;;;;;;;;;;5092058;28;20016;-38
2022/03/19 04:26:14;;;;;;;15.95;8.02;;;;;;;;;;5090869;28;20032;-38
2022/03/19 04:28:39;;;;;;;15.65;7.80;;;;;;;;;;5092015;28;20059;-38
2022/03/19 04:31:05;;;;;;;16.42;8.13;;;;;;;;;;5090599;28;20075;-38
2022/03/19 04:33:31;;;;;;;16.85;7.82;;;;;;;;;;5091869;28;20118;-38
2022/03/19 04:38:42;;;;;;;13.63;7.50;;;;;;;;;;5091932;28;20086;-38
2022/03/19 04:41:08;;;;;;;12.52;6.80;;;;;;;;;;5092007;28;20047;-38
2022/03/19 04:43:33;;;;;;;10.02;6.50;;;;;;;;;;5091833;28;20477;-38
2022/03/19 04:45:58;;;;;;;16.00;7.47;;;;;;;;;;5091848;28;20080;-38
2022/03/19 04:48:24;;;;;;;16.63;7.47;;;;;;;;;;5091684;28;20081;-38
2022/03/19 04:50:49;;;;;;;11.93;5.95;;;;;;;;;;5091440;28;20040;-38
2022/03/19 04:53:15;;;;;;;10.10;5.15;;;;;;;;;;5091557;28;20040;-38
2022/03/19 04:55:40;;;;;;;15.25;7.55;;;;;;;;;;5091674;28;20023;-38
2022/03/19 04:58:06;;;;;;;16.85;9.05;;;;;;;;;;5090183;28;20035;-38
2022/03/19 05:00:32;;;;;;;18.25;7.45;;;;;;;;;;5091521;28;20048;-38
2022/03/19 05:02:58;;;;;;;16.55;8.07;;;;;;;;;;5091670;28;20067;-41
2022/03/19 05:05:24;;;;;;;16.77;9.45;;;;;;;;;;5091545;28;20058;-38
2022/03/19 05:07:53;;;;;;;10.35;6.25;;;;;;;;;;5091363;28;20032;-38
2022/03/19 05:13:04;;;;;;;15.90;7.88;;;;;;;;;;5091306;28;20043;-38
2022/03/19 05:15:30;;;;;;;19.35;7.47;;;;;;;;;;5091390;28;20009;-38
2022/03/19 05:17:55;;;;;;;11.60;7.57;;;;;;;;;;5091350;28;20492;-38
2022/03/19 05:20:21;;;;;;;14.60;7.50;;;;;;;;;;5091401;28;20022;-38
2022/03/19 05:22:46;;;;;;;11.45;6.55;;;;;;;;;;5091884;28;20024;-38
2022/03/19 05:25:12;;;;;;;15.60;7.43;;;;;;;;;;5094007;28;20020;-38
2022/03/19 05:27:38;;;;;;;13.45;7.85;;;;;;;;;;5095430;28;20027;-38
2022/03/19 05:30:05;;;;;;;18.20;8.52;;;;;;;;;;5095302;28;20019;-38
2022/03/19 05:32:30;;;;;;;14.57;7.65;;;;;;;;;;5095348;28;20398;-38
2022/03/19 05:34:56;;;;;;;14.00;6.90;;;;;;;;;;5095482;28;20020;-39
2022/03/19 05:37:21;;;;;;;16.73;8.15;;;;;;;;;;5095213;28;20116;-38
2022/03/19 05:39:47;;;;;;;11.43;5.63;;;;;;;;;;5095431;28;20044;-38
2022/03/19 05:42:13;;;;;;;13.75;6.65;;;;;;;;;;5095143;28;20024;-38
2022/03/19 05:44:38;;;;;;;16.85;8.05;;;;;;;;;;5095190;28;20012;-38
2022/03/19 05:47:04;;;;;;;12.75;7.55;;;;;;;;;;5095077;28;20032;-38
2022/03/19 05:49:29;;;;;;;15.55;7.05;;;;;;;;;;5095138;28;20366;-38
2022/03/19 05:51:56;;;;;;;14.20;7.82;;;;;;;;;;5094710;28;20115;-38
2022/03/19 05:54:22;;;;;;;15.40;8.15;;;;;;;;;;5095039;28;20416;-38
2022/03/19 05:56:47;;;;;;;14.63;7.65;;;;;;;;;;5095265;28;20445;-38
2022/03/19 05:59:13;;;;;;;9.65;5.20;;;;;;;;;;5094679;28;20043;-38
2022/03/19 06:01:42;;;;;;;8.82;5.18;;;;;;;;;;5094860;28;20062;-38
2022/03/19 06:04:08;;;;;;;12.38;6.55;;;;;;;;;;5094719;28;20031;-39
2022/03/19 06:06:34;;;;;;;13.30;7.18;;;;;;;;;;5094732;28;20019;-38
2022/03/19 06:08:59;;;;;;;14.55;7.28;;;;;;;;;;5094881;28;20495;-38
2022/03/19 06:11:25;;;;;;;10.23;6.25;;;;;;;;;;5094761;28;20398;-38
2022/03/19 06:13:52;;;;;;;10.55;5.97;;;;;;;;;;5094130;28;20012;-38
2022/03/19 06:16:18;;;;;;;14.82;7.70;;;;;;;;;;5094612;28;20039;-38
2022/03/19 06:18:46;;;;;;;11.30;6.38;;;;;;;;;;5094445;28;20018;-38
2022/03/19 06:21:11;;;;;;;15.30;6.90;;;;;;;;;;5094392;28;20028;-38
2022/03/19 06:23:37;;;;;;;18.10;7.45;;;;;;;;;;5094667;28;20073;-38
2022/03/19 06:26:03;;;;;;;13.63;5.22;;;;;;;;;;5093043;28;20101;-37
2022/03/19 06:28:28;;;;;;;12.60;6.63;;;;;;;;;;5092956;28;20432;-38
2022/03/19 06:30:54;;;;;;;14.52;6.18;;;;;;;;;;5094207;28;20032;-38
2022/03/19 06:33:20;;;;;;;12.10;6.57;;;;;;;;;;5094154;28;20051;-38
2022/03/19 06:38:31;;;;;;;11.07;5.50;;;;;;;;;;5094105;28;20139;-37
2022/03/19 06:40:58;;;;;;;12.05;6.53;;;;;;;;;;5093985;28;20103;-37
2022/03/19 06:43:24;;;;;;;12.40;7.10;;;;;;;;;;5094094;28;20032;-38
2022/03/19 06:45:50;;;;;;;14.82;7.07;;;;;;;;;;5093962;28;20020;-37
2022/03/19 06:48:16;;;;;;;10.52;5.68;;;;;;;;;;5093786;28;20077;-38
2022/03/19 06:50:42;;;;;;;12.63;7.32;;;;;;;;;;5093926;28;20113;-38
2022/03/19 06:53:08;;;;;;;12.43;6.35;;;;;;;;;;5093980;28;20481;-37
2022/03/19 06:55:34;;;;;;;13.55;5.70;;;;;;;;;;5092461;28;20059;-38
2022/03/19 06:58:00;;;;;;;16.95;6.38;;;;;;;;;;5093548;28;20469;-38
2022/03/19 07:00:28;;;;;;;15.63;7.30;;;;;;;;;;5092371;28;20024;-38
2022/03/19 07:02:55;;;;;;;11.50;6.95;;;;;;;;;;5093524;28;20032;-37
2022/03/19 07:05:22;;;;;;;14.45;7.82;;;;;;;;;;5093691;28;20016;-38
2022/03/19 07:07:48;;;;;;;12.35;6.22;;;;;;;;;;5093552;28;20028;-38
2022/03/19 07:10:15;;;;;;;18.40;7.75;;;;;;;;;;5093354;28;20016;-38
2022/03/19 07:12:44;;;;;;;11.00;6.57;;;;;;;;;;5093722;28;20040;-38
2022/03/19 07:15:14;;;;;;;11.10;7.20;;;;;;;;;;5093303;28;20051;-38
2022/03/19 07:17:40;;;;;;;13.68;6.32;;;;;;;;;;5093491;28;20114;-38
2022/03/19 07:20:07;;;;;;;12.23;6.45;;;;;;;;;;5093275;28;20065;-37
2022/03/19 07:22:46;;;;;;;14.30;7.28;;;;;;;;;;5091962;28;20036;-37
2022/03/19 07:25:12;;;;;;;12.55;6.30;;;;;;;;;;5093141;28;20039;-38
2022/03/19 07:27:39;;;;;;;15.15;6.63;;;;;;;;;;5091858;28;20028;-38
2022/03/19 07:30:05;;;;;;;20.17;8.13;;;;;;;;;;5091697;28;20102;-37
2022/03/19 07:32:31;;;;;;;12.95;6.65;;;;;;;;;;5093212;28;20465;-37
2022/03/19 07:34:57;;;;;;;14.13;5.65;;;;;;;;;;5092965;28;20024;-38
2022/03/19 07:37:22;;;;;;;11.15;5.32;;;;;;;;;;5092914;28;20065;-38
2022/03/19 07:39:48;;;;;;;12.55;5.70;;;;;;;;;;5092992;28;20076;-37
2022/03/19 07:42:14;;;;;;;17.00;7.47;;;;;;;;;;5092883;28;20020;-38
2022/03/19 07:44:40;;;;;;;14.13;7.00;;;;;;;;;;5092875;28;20562;-38
2022/03/19 07:47:07;;;;;;;12.50;6.43;;;;;;;;;;5092560;28;20067;-38
2022/03/19 07:49:33;;;;;;;13.40;7.78;;;;;;;;;;5092827;28;20051;-38
2022/03/19 07:52:00;;;;;;;12.85;7.07;;;;;;;;;;5092390;28;20044;-38
2022/03/19 07:54:27;;;;;;;14.43;6.53;;;;;;;;;;5091417;28;20067;-39
2022/03/19 07:56:53;;;;;;;12.25;6.50;;;;;;;;;;5092991;28;20536;-38
2022/03/19 07:59:20;;;;;;;14.80;7.38;;;;;;;;;;5092489;28;20116;-38
2022/03/19 08:01:48;;;;;;;11.75;7.05;;;;;;;;;;5092624;28;20024;-38
2022/03/19 08:04:15;;;;;;;7.93;3.53;;;;;;;;;;5092369;28;20024;-38
2022/03/19 08:06:40;;;;;;;10.40;7.00;;;;;;;;;;5092471;28;20019;-38
2022/03/19 08:09:10;;;;;;;11.23;7.07;;;;;;;;;;5091009;28;20078;-38
2022/03/19 08:11:35;;;;;;;15.02;6.63;;;;;;;;;;5092565;28;20028;-38
2022/03/19 08:14:02;;;;;;;12.07;5.53;;;;;;;;;;5092202;28;20530;-38
2022/03/19 08:16:31;;;;;;;11.65;6.25;;;;;;;;;;5092280;28;20092;-38
2022/03/19 08:19:00;;;;;;;14.15;7.32;;;;;;;;;;5090750;28;20036;-38
2022/03/19 08:21:26;;;;;;;13.00;6.60;;;;;;;;;;5092119;28;20024;-39
2022/03/19 08:23:52;;;;;;;11.90;6.78;;;;;;;;;;5092356;28;20085;-38
2022/03/19 08:26:18;;;;;;;12.05;5.88;;;;;;;;;;5092329;28;20015;-38
2022/03/19 08:28:44;;;;;;;10.80;5.47;;;;;;;;;;5092009;28;20027;-38
2022/03/19 08:31:09;;;;;;;12.75;7.55;;;;;;;;;;5091899;28;20099;-38
2022/03/19 08:33:35;;;;;;;13.57;5.60;;;;;;;;;;5092073;28;20114;-38
2022/03/19 08:36:01;;;;;;;15.63;7.57;;;;;;;;;;5091898;28;20020;-38
2022/03/19 08:41:11;;;;;;;16.27;6.68;;;;;;;;;;5091868;28;20105;-38
2022/03/19 08:43:37;;;;;;;15.85;8.18;;;;;;;;;;5092127;28;20020;-38
2022/03/19 08:46:03;;;;;;;9.18;5.05;;;;;;;;;;5090392;28;20401;-38
2022/03/19 08:48:28;;;;;;;17.85;7.00;;;;;;;;;;5091853;28;20016;-38
2022/03/19 08:51:39;;;;;;;12.68;6.00;;;;;;;;;;5091510;28;20052;-38
2022/03/19 08:53:39;;;;;;;10.65;6.38;;;;;;;;;;5091545;28;20044;-38
2022/03/19 08:56:05;;;;;;;11.30;7.53;;;;;;;;;;5091749;28;20076;-38
2022/03/19 08:58:31;;;;;;;17.05;6.80;;;;;;;;;;5091259;28;20379;-38
2022/03/19 09:00:57;;;;;;;7.22;4.45;;;;;;;;;;5091684;28;20024;-39
2022/03/19 09:03:26;;;;;;;11.23;6.78;;;;;;;;;;5091494;28;20103;-38
2022/03/19 09:05:51;;;;;;;12.80;6.15;;;;;;;;;;5091862;28;20028;-38
2022/03/19 09:08:17;;;;;;;12.35;5.85;;;;;;;;;;5091646;28;20477;-38
2022/03/19 09:10:42;;;;;;;12.30;5.72;;;;;;;;;;5091350;28;20039;-38
2022/03/19 09:13:08;;;;;;;13.10;5.22;;;;;;;;;;5091374;28;20039;-38
2022/03/19 09:15:34;;;;;;;12.82;6.80;;;;;;;;;;5091535;28;20047;-37
2022/03/19 09:17:59;;;;;;;11.43;6.30;;;;;;;;;;5091195;28;20149;-38
2022/03/19 09:20:24;;;;;;;11.60;6.03;;;;;;;;;;5091526;28;20028;-38
2022/03/19 09:22:50;;;;;;;13.65;6.32;;;;;;;;;;5091452;28;20047;-38
2022/03/19 09:25:15;;;;;;;14.18;6.43;;;;;;;;;;5091571;28;20016;-38
2022/03/19 09:27:42;;;;;;;14.80;5.68;;;;;;;;;;5091336;28;20473;-38
2022/03/19 09:30:08;;;;;;;10.55;5.75;;;;;;;;;;5091277;28;20069;-38
2022/03/19 09:32:35;;;;;;;12.55;6.30;;;;;;;;;;5091308;28;20040;-38
2022/03/19 09:35:01;;;;;;;8.65;5.15;;;;;;;;;;5091252;28;20020;-38
2022/03/19 09:37:27;;;;;;;12.32;7.18;;;;;;;;;;5091283;28;20538;-38
2022/03/19 09:39:52;;;;;;;8.43;5.22;;;;;;;;;;5089959;28;20102;-38
2022/03/19 09:42:18;;;;;;;11.18;5.90;;;;;;;;;;5091507;28;20040;-38
2022/03/19 09:44:44;;;;;;;12.00;7.38;;;;;;;;;;5091222;28;20020;-39
2022/03/19 09:47:11;;;;;;;11.20;4.82;;;;;;;;;;5090967;28;20043;-38
2022/03/19 09:49:36;;;;;;;11.65;5.63;;;;;;;;;;5091459;28;20019;-38
2022/03/19 09:52:03;;;;;;;15.95;7.03;;;;;;;;;;5090784;28;20512;-38
2022/03/19 09:54:32;;;;;;;13.18;6.43;;;;;;;;;;5091077;28;20028;-38
2022/03/19 09:56:58;;;;;;;17.25;6.90;;;;;;;;;;5090926;28;20506;-38
2022/03/19 09:59:26;;;;;;;8.27;4.28;;;;;;;;;;5091024;28;20073;-38
2022/03/19 10:01:52;;;;;;;11.43;5.95;;;;;;;;;;5091224;28;20043;-38
2022/03/19 10:04:20;;;;;;;10.27;5.93;;;;;;;;;;5090901;28;20592;-38
2022/03/19 10:09:39;;;;;;;;;;;;;;;;;;5091433;28;20087;-38
2022/03/19 10:12:10;;;;;;;15.15;5.05;;;;;;;;;;5093339;28;19915;-38
2022/03/19 10:14:39;;;;;;;13.82;6.30;;;;;;;;;;5094650;28;20483;-38
2022/03/19 10:17:05;;;;;;;13.32;6.05;;;;;;;;;;5094425;28;20027;-38
2022/03/19 10:19:32;;;;;;;11.77;5.85;;;;;;;;;;5094482;28;20055;-38
2022/03/19 10:22:10;;;;;;;16.95;6.57;;;;;;;;;;5094607;28;20347;-38
2022/03/19 10:24:37;;;;;;;10.07;4.82;;;;;;;;;;5094473;28;20137;-38
2022/03/19 10:27:02;;;;;;;14.35;5.97;;;;;;;;;;5094594;28;20016;-38
2022/03/19 10:29:30;;;;;;;13.35;4.82;;;;;;;;;;5094254;28;20051;-38
2022/03/19 10:31:59;;;;;;;11.48;5.80;;;;;;;;;;5094159;28;20477;-38
2022/03/19 10:34:25;;;;;;;8.95;3.70;;;;;;;;;;5094322;28;20032;-38
2022/03/19 10:36:50;;;;;;;13.07;6.57;;;;;;;;;;5094159;28;20020;-38
2022/03/19 10:39:19;;;;;;;13.65;6.32;;;;;;;;;;5094076;28;20027;-38
2022/03/19 10:41:46;;;;;;;9.70;5.78;;;;;;;;;;5094129;28;20028;-38
2022/03/19 10:44:13;;;;;;;12.68;6.32;;;;;;;;;;5093929;28;20024;-38
2022/03/19 10:46:39;;;;;;;15.32;5.38;;;;;;;;;;5094013;28;20035;-38
2022/03/19 10:49:11;;;;;;;14.20;5.80;;;;;;;;;;5093804;28;20470;-38
2022/03/19 10:51:38;;;;;;;17.42;6.40;;;;;;;;;;5093829;28;20048;-38
2022/03/19 10:54:04;;;;;;;11.90;6.95;;;;;;;;;;5093778;28;20115;-38
2022/03/19 10:56:30;;;;;;;13.90;5.88;;;;;;;;;;5093850;28;20023;-38
2022/03/19 10:58:56;;;;;;;10.68;6.38;;;;;;;;;;5093710;28;20069;-38
2022/03/19 11:01:22;;;;;;;18.42;7.68;;;;;;;;;;5093715;28;20039;-38
2022/03/19 11:03:53;;;;;;;12.57;6.07;;;;;;;;;;5093810;28;20020;-37
2022/03/19 11:06:19;;;;;;;15.18;6.55;;;;;;;;;;5093509;28;20498;-38
2022/03/19 11:08:47;;;;;;;8.05;4.68;;;;;;;;;;5093412;28;20032;-38
2022/03/19 11:11:22;;;;;;;8.55;4.30;;;;;;;;;;5093464;28;20077;-38
2022/03/19 11:13:49;;;;;;;10.68;5.57;;;;;;;;;;5093418;28;20036;-38
2022/03/19 11:16:16;;;;;;;12.65;6.47;;;;;;;;;;5093418;28;20027;-38
2022/03/19 11:18:42;;;;;;;11.40;6.60;;;;;;;;;;5093304;28;20070;-38
2022/03/19 11:21:09;;;;;;;16.70;7.85;;;;;;;;;;5093607;28;20020;-38
2022/03/19 11:23:42;;;;;;;17.00;6.25;;;;;;;;;;5093270;28;20371;-43
2022/03/19 11:26:07;;;;;;;;;;;;;;;;;;5093544;28;20474;-38
2022/03/19 11:28:34;;;;;;;11.95;6.85;;;;;;;;;;5093446;28;19938;-38
2022/03/19 11:31:01;;;;;;;13.95;6.88;;;;;;;;;;5093076;28;20073;-37
2022/03/19 11:33:31;;;;;;;11.35;5.95;;;;;;;;;;5093277;28;20043;-38
2022/03/19 11:36:00;;;;;;;11.95;5.25;;;;;;;;;;5092923;28;20028;-38
2022/03/19 11:38:26;;;;;;;12.57;6.18;;;;;;;;;;5093031;28;20369;-38
2022/03/19 11:40:56;;;;;;;10.20;6.60;;;;;;;;;;5093169;28;20024;-38
2022/03/19 11:43:24;;;;;;;14.07;6.88;;;;;;;;;;5093203;28;20478;-38
2022/03/19 11:45:57;;;;;;;15.35;7.22;;;;;;;;;;5092804;28;20058;-38
2022/03/19 11:48:35;;;;;;;13.70;7.35;;;;;;;;;;5092740;28;20036;-39
2022/03/19 11:51:20;;;;;;;16.70;6.07;;;;;;;;;;5091355;28;20048;-38
2022/03/19 11:54:12;;;;;;;13.23;6.65;;;;;;;;;;5092608;28;20043;-38
2022/03/19 11:56:41;;;;;;;11.18;6.45;;;;;;;;;;5083621;28;20043;-38
2022/03/19 11:59:15;;;;;;;10.45;6.45;;;;;;;;;;5092520;28;20049;-38
2022/03/19 12:01:46;;;;;;;10.10;5.25;;;;;;;;;;5092777;28;20084;-38
2022/03/19 12:04:12;;;;;;;14.93;7.18;;;;;;;;;;5092703;28;20043;-38
2022/03/19 12:06:39;;;;;;;12.77;6.75;;;;;;;;;;5092472;28;20012;-38
2022/03/19 12:09:05;;;;;;;15.73;6.38;;;;;;;;;;5092609;28;20040;-38
2022/03/19 12:11:32;;;;;;;9.82;5.25;;;;;;;;;;5092691;28;20481;-38
2022/03/19 12:13:58;;;;;;;15.60;6.82;;;;;;;;;;5092302;28;20042;-41
2022/03/19 12:16:37;;;;;;;11.25;6.05;;;;;;;;;;5092203;28;20119;-38
2022/03/19 12:19:02;;;;;;;9.23;5.85;;;;;;;;;;5092224;28;20057;-39
2022/03/19 12:21:32;;;;;;;13.98;6.35;;;;;;;;;;5092518;28;20372;-37
2022/03/19 12:24:06;;;;;;;10.20;6.05;;;;;;;;;;5091989;28;20020;-38
2022/03/19 12:26:58;;;;;;;10.80;6.40;;;;;;;;;;5092000;28;20496;-39
2022/03/19 12:29:30;;;;;;;10.85;5.28;;;;;;;;;;5088492;28;20040;-38
2022/03/19 12:31:55;;;;;;;14.05;6.72;;;;;;;;;;5091872;28;20054;-38
2022/03/19 12:34:22;;;;;;;8.55;5.18;;;;;;;;;;5090077;28;20028;-38
2022/03/19 12:36:49;;;;;;;14.68;5.70;;;;;;;;;;5091859;28;20021;-38
2022/03/19 12:39:16;;;;;;;14.43;5.60;;;;;;;;;;5091792;28;20077;-38
2022/03/19 12:41:45;;;;;;;10.57;6.72;;;;;;;;;;5091020;28;20024;-38
2022/03/19 12:44:20;;;;;;;11.10;6.20;;;;;;;;;;5091689;28;20016;-38
2022/03/19 12:46:47;;;;;;;9.32;5.28;;;;;;;;;;5091747;28;20036;-38
2022/03/19 12:49:15;;;;;;;11.77;6.97;;;;;;;;;;5091649;28;20028;-38
2022/03/19 12:51:43;;;;;;;17.75;7.30;;;;;;;;;;5090295;28;20051;-38
2022/03/19 12:54:19;;;;;;;16.40;7.38;;;;;;;;;;5091670;28;20027;-37
2022/03/19 12:56:48;;;;;;;9.63;5.22;;;;;;;;;;5091982;28;20075;-38
2022/03/19 12:59:43;;;;;;;10.60;5.50;;;;;;;;;;5091730;28;20055;-38
2022/03/19 13:02:08;;;;;;;12.63;6.35;;;;;;;;;;5086145;28;20094;-38
2022/03/19 13:04:34;;;;;;;14.40;6.65;;;;;;;;;;5091596;28;20024;-38
2022/03/19 13:07:04;;;;;;;9.75;6.60;;;;;;;;;;5091748;28;20048;-38
2022/03/19 13:09:38;;;;;;;12.82;5.43;;;;;;;;;;5091825;28;20032;-38
2022/03/19 13:12:05;;;;;;;14.60;5.38;;;;;;;;;;5091386;28;20028;-38
2022/03/19 13:14:31;;;;;;;16.75;7.95;;;;;;;;;;5091494;28;20028;-38
2022/03/19 13:16:56;;;;;;;11.50;5.53;;;;;;;;;;5091498;28;20482;-38
2022/03/19 13:19:25;;;;;;;13.00;6.13;;;;;;;;;;5091347;28;20034;-38
2022/03/19 13:21:52;;;;;;;9.95;5.15;;;;;;;;;;5091497;28;20426;-38
2022/03/19 13:24:19;;;;;;;12.80;6.35;;;;;;;;;;5091463;28;20466;-38
2022/03/19 13:26:45;;;;;;;10.20;5.78;;;;;;;;;;5091536;28;20048;-38
2022/03/19 13:29:15;;;;;;;9.20;5.63;;;;;;;;;;5091322;28;20505;-38
2022/03/19 13:31:43;;;;;;;12.75;5.57;;;;;;;;;;5091539;28;20028;-38
2022/03/19 13:34:15;;;;;;;11.80;6.70;;;;;;;;;;5091090;28;20077;-38
2022/03/19 13:36:43;;;;;;;7.72;4.50;;;;;;;;;;5091557;28;20101;-38
2022/03/19 13:39:17;;;;;;;15.98;6.85;;;;;;;;;;5091200;28;20028;-38
2022/03/19 13:41:44;;;;;;;10.55;5.57;;;;;;;;;;5091273;28;20028;-38
2022/03/19 13:44:09;;;;;;;10.70;6.03;;;;;;;;;;5091295;28;20020;-38
2022/03/19 13:46:35;;;;;;;12.00;5.65;;;;;;;;;;5094388;28;20092;-38
2022/03/19 13:49:12;;;;;;;14.30;6.15;;;;;;;;;;5094994;28;20055;-39
2022/03/19 13:51:43;;;;;;;9.25;4.57;;;;;;;;;;5094893;28;20048;-38
2022/03/19 13:54:09;;;;;;;9.68;5.90;;;;;;;;;;5092789;28;20040;-38
2022/03/19 13:56:48;;;;;;;13.52;7.05;;;;;;;;;;5094912;28;20534;-38
2022/03/19 13:59:25;;;;;;;18.40;7.13;;;;;;;;;;5095076;28;20028;-38
2022/03/19 14:01:51;;;;;;;12.73;5.82;;;;;;;;;;5095197;28;20035;-38
2022/03/19 14:04:17;;;;;;;11.80;6.18;;;;;;;;;;5094820;28;20020;-38
2022/03/19 14:06:44;;;;;;;13.68;5.90;;;;;;;;;;5094828;28;20084;-39
2022/03/19 14:09:10;;;;;;;12.00;5.88;;;;;;;;;;5094603;28;20373;-38
2022/03/19 14:11:39;;;;;;;14.18;6.47;;;;;;;;;;5094611;28;20028;-38
2022/03/19 14:14:09;;;;;;;13.02;6.45;;;;;;;;;;5094478;28;20044;-38
2022/03/19 14:16:52;;;;;;;14.07;7.45;;;;;;;;;;5094530;28;20490;-38
2022/03/19 14:19:18;;;;;;;10.48;5.32;;;;;;;;;;5094538;28;20661;-38
2022/03/19 14:21:43;;;;;;;15.40;6.03;;;;;;;;;;5094507;28;20024;-38
2022/03/19 14:24:09;;;;;;;11.10;5.90;;;;;;;;;;5094322;28;20032;-38
2022/03/19 14:26:35;;;;;;;15.70;5.95;;;;;;;;;;5094411;28;20024;-38
2022/03/19 14:29:02;;;;;;;11.38;6.22;;;;;;;;;;5094296;28;20028;-38
2022/03/19 14:31:28;;;;;;;13.57;6.85;;;;;;;;;;5094357;28;20020;-38
2022/03/19 14:33:53;;;;;;;10.40;6.40;;;;;;;;;;5094180;28;20051;-38
2022/03/19 14:36:19;;;;;;;6.95;4.25;;;;;;;;;;5094111;28;20020;-38
2022/03/19 14:38:46;;;;;;;12.07;5.15;;;;;;;;;;5094450;28;20075;-38
2022/03/19 14:41:15;;;;;;;13.93;6.88;;;;;;;;;;5094092;28;20023;-38
2022/03/19 14:43:42;;;;;;;9.73;5.53;;;;;;;;;;5094154;28;20016;-38
2022/03/19 14:46:08;;;;;;;13.65;6.55;;;;;;;;;;5094196;28;20101;-37